Lara Venture — VRIJ7 — position and weather

sailwx.info

Track history (hours):
 
Tides and Currents Weather Stations Pressure Air Temp Water Temp Dewpoint Dewpoint Depression Visibility Wind Speed Wind Dir Waves Ship Positions

Lara Venture

Last reported at 2017-Oct-10 07:36 UTC. Time now 2017-Oct-19 20:03 UTC.
Position N 39°34' W 016°52'.
Warning: this ship's position is 9 days out of date.

Length 235 m; draft 7.6 m.

Type: Cargo ship. MMSI: 477434300.

Date/timePositionNaut miles runAvg speedWind from/ knotsBaromVisibWave heightAir tempDewpointWater temp
2017-Oct-10 07:36N 39°34' W 016°52'3410.1
2017-Oct-10 04:14N 39°18' W 016°13'210.1
2017-Oct-10 04:00N 39°17' W 016°11'810.2
2017-Oct-10 03:12N 39°13' W 016°01'210.4
2017-Oct-10 03:00N 39°12' W 015°59'510.2
2017-Oct-10 02:30N 39°10' W 015°53'510.1
2017-Oct-10 02:00N 39°07' W 015°48'510.2
2017-Oct-10 01:30N 39°05' W 015°42'5 9.9
2017-Oct-10 01:00N 39°02' W 015°36'510.1
2017-Oct-10 00:30N 38°60' W 015°31'510.2
2017-Oct-10 00:00N 38°57' W 015°25'510.0
2017-Oct-09 23:30N 38°55' W 015°20'5 9.9
2017-Oct-09 23:00N 38°52' W 015°14'510.1
2017-Oct-09 22:30N 38°50' W 015°08'510.0
2017-Oct-09 22:00N 38°48' W 015°03'510.0
2017-Oct-09 21:30N 38°45' W 014°57'510.0
2017-Oct-09 21:00N 38°43' W 014°52'510.1
2017-Oct-09 20:30N 38°40' W 014°46'510.3
2017-Oct-09 20:00N 38°38' W 014°40'5 9.7
2017-Oct-09 19:30N 38°35' W 014°35'510.0
2017-Oct-09 19:00N 38°33' W 014°29'5 9.9
2017-Oct-09 18:30N 38°30' W 014°24'510.0
2017-Oct-09 18:00N 38°28' W 014°18'510.0
2017-Oct-09 17:30N 38°26' W 014°12'5 9.9
2017-Oct-09 17:00N 38°23' W 014°07'510.2
2017-Oct-09 16:30N 38°21' W 014°01'510.3
2017-Oct-09 16:00N 38°18' W 013°55'510.2
2017-Oct-09 15:30N 38°16' W 013°50'510.0
2017-Oct-09 15:00N 38°14' W 013°44'611.9
2017-Oct-09 14:30N 38°11' W 013°37'713.0
2017-Oct-09 14:00N 38°08' W 013°30'5 9.6
2017-Oct-09 13:30N 38°05' W 013°25'5 9.7
2017-Oct-09 13:00N 38°03' W 013°19'5 9.7
2017-Oct-09 12:30N 38°00' W 013°14'510.0
2017-Oct-09 12:00N 37°58' W 013°09'510.0
2017-Oct-09 11:30N 37°56' W 013°03'510.0
2017-Oct-09 11:00N 37°54' W 012°57'510.0
2017-Oct-09 10:30N 37°51' W 012°52'5 9.9
2017-Oct-09 10:00N 37°49' W 012°46'5 9.7
2017-Oct-09 09:30N 37°46' W 012°41'5 9.8
2017-Oct-09 09:00N 37°44' W 012°35'510.1
2017-Oct-09 08:30N 37°41' W 012°30'5 9.9
2017-Oct-09 08:00N 37°39' W 012°24'5 9.9
2017-Oct-09 07:30N 37°37' W 012°19'510.0
2017-Oct-09 07:00N 37°34' W 012°13'5 9.9
2017-Oct-09 06:30N 37°32' W 012°08'5 9.8
2017-Oct-09 06:00N 37°29' W 012°03'5 9.8
2017-Oct-09 05:30N 37°27' W 011°57'5 9.8
2017-Oct-09 05:00N 37°25' W 011°52'5 9.9
2017-Oct-09 04:30N 37°22' W 011°46'510.2
2017-Oct-09 04:00N 37°20' W 011°41'510.1
2017-Oct-09 03:30N 37°17' W 011°35'5 9.9
2017-Oct-09 03:00N 37°15' W 011°30'5 9.6
2017-Oct-09 02:30N 37°13' W 011°24'5 9.7
2017-Oct-09 02:00N 37°10' W 011°19'5 9.9
2017-Oct-09 01:30N 37°08' W 011°14'5 9.8
2017-Oct-09 01:00N 37°06' W 011°08'5 9.5
2017-Oct-09 00:30N 37°03' W 011°03'5 9.3
2017-Oct-09 00:00N 37°01' W 010°58'5 9.6
2017-Oct-08 23:30N 36°59' W 010°53'5 9.5
2017-Oct-08 23:00N 36°56' W 010°47'5 9.2
2017-Oct-08 22:30N 36°54' W 010°42'4 9.0
2017-Oct-08 22:00N 36°52' W 010°37'5 9.0
2017-Oct-08 21:30N 36°50' W 010°32'5 9.4
2017-Oct-08 21:00N 36°48' W 010°27'5 9.6
2017-Oct-08 20:28N 36°45' W 010°22'4 9.6
2017-Oct-08 20:00N 36°43' W 010°17'5 9.4
2017-Oct-08 19:30N 36°41' W 010°12'5 9.6
2017-Oct-08 19:00N 36°38' W 010°07'5 9.8
2017-Oct-08 18:31N 36°36' W 010°01'5 9.8
2017-Oct-08 18:00N 36°34' W 009°56'5 9.8
2017-Oct-08 17:30N 36°31' W 009°51'5 9.8
2017-Oct-08 17:00N 36°29' W 009°45'5 9.7
2017-Oct-08 16:30N 36°27' W 009°40'510.1
2017-Oct-08 16:00N 36°25' W 009°34'510.1
2017-Oct-08 15:28N 36°23' W 009°28'510.3
2017-Oct-08 15:00N 36°22' W 009°22'510.0
2017-Oct-08 14:29N 36°20' W 009°16'510.0
2017-Oct-08 14:00N 36°19' W 009°10'6 9.9
2017-Oct-08 13:27N 36°17' W 009°03'5 9.6
2017-Oct-08 12:56N 36°17' W 008°58'4 9.9
2017-Oct-08 12:30N 36°16' W 008°52'510.0
2017-Oct-08 12:00N 36°16' W 008°46'510.1
2017-Oct-08 11:30N 36°15' W 008°40'5 9.8
2017-Oct-08 11:00N 36°14' W 008°34'6 9.7
2017-Oct-08 10:26N 36°13' W 008°27'4 9.9
2017-Oct-08 10:00N 36°13' W 008°22'610.2
2017-Oct-08 09:26N 36°12' W 008°15'4 9.7
2017-Oct-08 08:59N 36°11' W 008°09'5 9.9
2017-Oct-08 08:30N 36°11' W 008°04'5 9.8
2017-Oct-08 08:00N 36°10' W 007°58'510.1
2017-Oct-08 07:30N 36°09' W 007°51'510.1
2017-Oct-08 07:00N 36°08' W 007°45'510.1
2017-Oct-08 06:30N 36°08' W 007°39'510.3
2017-Oct-08 06:00N 36°07' W 007°33'610.3
2017-Oct-08 05:24N 36°06' W 007°25'610.4
2017-Oct-08 04:48N 36°05' W 007°17'410.2
2017-Oct-08 04:25N 36°05' W 007°13'510.2
2017-Oct-08 03:57N 36°05' W 007°07'410.1
2017-Oct-08 03:30N 36°04' W 007°01'1310.7
2017-Oct-08 02:19N 36°01' W 006°46'310.6
2017-Oct-08 02:00N 36°01' W 006°42'510.4
2017-Oct-08 01:30N 36°00' W 006°35'1010.2
2017-Oct-08 00:30N 35°58' W 006°23'57 3.1
2017-Oct-07 06:22N 36°05' W 005°13'1 3.5
2017-Oct-07 06:00N 36°05' W 005°15'0 0.7
2017-Oct-07 05:30N 36°05' W 005°14'0 0.4
2017-Oct-07 05:00N 36°05' W 005°14'0 0.5
2017-Oct-07 04:30N 36°05' W 005°14'0 0.6
2017-Oct-07 04:00N 36°06' W 005°14'0 0.6
2017-Oct-07 03:30N 36°06' W 005°14'1 1.3
2017-Oct-07 03:00N 36°05' W 005°13'2 3.3
2017-Oct-07 02:30N 36°04' W 005°12'1 1.6
2017-Oct-07 02:00N 36°04' W 005°11'0 1.0
2017-Oct-07 01:30N 36°04' W 005°11'0 0.8
2017-Oct-07 01:00N 36°04' W 005°11'0 0.7
2017-Oct-07 00:30N 36°04' W 005°12'0 0.5
2017-Oct-07 00:00N 36°05' W 005°12'0 0.2
2017-Oct-06 23:30N 36°05' W 005°12'0 0.5
2017-Oct-06 23:00N 36°05' W 005°12'1 1.8
2017-Oct-06 22:30N 36°06' W 005°12'3 5.2
2017-Oct-06 22:00N 36°08' W 005°13'0 1.0
2017-Oct-06 21:30N 36°08' W 005°14'1 1.0
2017-Oct-06 21:00N 36°08' W 005°14'1 1.9
2017-Oct-06 20:30N 36°07' W 005°13'1 1.2
2017-Oct-06 20:00N 36°06' W 005°13'0 0.6
2017-Oct-06 19:30N 36°06' W 005°13'0 0.7
2017-Oct-06 19:00N 36°06' W 005°13'0 0.8
2017-Oct-06 18:30N 36°05' W 005°13'0 0.6
2017-Oct-06 18:00N 36°05' W 005°13'0 0.5
2017-Oct-06 17:30N 36°05' W 005°13'0 0.0
2017-Oct-06 17:00N 36°05' W 005°13'0 0.4
2017-Oct-06 16:30N 36°05' W 005°13'0 0.2
2017-Oct-06 16:00N 36°05' W 005°13'0 0.3
2017-Oct-06 15:30N 36°05' W 005°13'0 0.1
2017-Oct-06 15:00N 36°05' W 005°13'0 0.2
2017-Oct-06 14:30N 36°05' W 005°13'1 1.4
2017-Oct-06 14:00N 36°04' W 005°13'1 2.1
2017-Oct-06 13:30N 36°03' W 005°12'0 0.5
2017-Oct-06 12:56N 36°03' W 005°12'0 0.6
2017-Oct-06 12:30N 36°04' W 005°12'0 0.7
2017-Oct-06 12:00N 36°04' W 005°12'0 0.1
2017-Oct-06 11:30N 36°04' W 005°12'1 2.9
2017-Oct-06 11:00N 36°04' W 005°11'14510.6
2017-Oct-05 21:23N 36°09' W 002°11'410.2
2017-Oct-05 21:00N 36°10' W 002°07'5 9.9
2017-Oct-05 20:30N 36°11' W 002°01'5 9.9
2017-Oct-05 20:00N 36°12' W 001°55'7 9.9
2017-Oct-05 19:15N 36°13' W 001°46'5 9.7
2017-Oct-05 18:43N 36°14' W 001°39'2 9.6
2017-Oct-05 18:30N 36°15' W 001°37'5 9.7
2017-Oct-05 18:00N 36°16' W 001°31'5 9.6
2017-Oct-05 17:30N 36°17' W 001°25'20 9.8
2017-Oct-05 15:30N 36°21' W 001°01'510.1
2017-Oct-05 15:00N 36°22' W 000°55'  
2017-Oct-02 20:28N 36°46' E 013°21'510.1
2017-Oct-02 19:56N 36°44' E 013°28'410.1
2017-Oct-02 19:31N 36°43' E 013°33'510.0
2017-Oct-02 19:00N 36°42' E 013°39'5 9.9
2017-Oct-02 18:30N 36°40' E 013°45'5 9.8
2017-Oct-02 18:00N 36°39' E 013°51'5 9.8
2017-Oct-02 17:30N 36°38' E 013°57'5 9.7
2017-Oct-02 17:00N 36°36' E 014°02'5 9.7
2017-Oct-02 16:30N 36°35' E 014°08'5 9.8
2017-Oct-02 16:01N 36°34' E 014°14'5 9.6
2017-Oct-02 15:30N 36°32' E 014°20'5 9.6
2017-Oct-02 15:00N 36°31' E 014°26'5 9.6
2017-Oct-02 14:30N 36°30' E 014°31'5 9.8
2017-Oct-02 14:00N 36°28' E 014°37'510.3
2017-Oct-02 13:30N 36°29' E 014°44'510.4
2017-Oct-02 13:00N 36°29' E 014°50'1110.7
2017-Oct-02 11:57N 36°30' E 015°04'4910.1
2017-Oct-02 07:07N 37°01' E 015°50'212.5
2017-Oct-02 07:00N 37°03' E 015°51'1511.8
2017-Oct-02 05:46N 37°14' E 016°03'310.0
2017-Oct-02 05:29N 37°16' E 016°05'610.0
2017-Oct-02 04:54N 37°21' E 016°10'410.1
2017-Oct-02 04:28N 37°24' E 016°13'510.1
2017-Oct-02 04:01N 37°28' E 016°17'510.0
2017-Oct-02 03:31N 37°31' E 016°21'510.0
2017-Oct-02 03:00N 37°35' E 016°25'24 9.9
2017-Oct-02 00:35N 37°55' E 016°43'15 9.9
2017-Oct-01 23:06N 38°07' E 016°53'5810.5
2017-Oct-01 17:33N 38°58' E 017°29'1610.7
2017-Oct-01 16:04N 39°14' E 017°30'210.7
2017-Oct-01 15:55N 39°15' E 017°30'410.5
2017-Oct-01 15:30N 39°20' E 017°30'510.6
2017-Oct-01 15:00N 39°25' E 017°30'610.6
2017-Oct-01 14:26N 39°31' E 017°30'510.6
2017-Oct-01 14:00N 39°35' E 017°28'510.9
2017-Oct-01 13:30N 39°41' E 017°26'610.7
2017-Oct-01 12:55N 39°46' E 017°23'710.7
2017-Oct-01 12:17N 39°53' E 017°20'310.6
2017-Oct-01 12:00N 39°56' E 017°19'510.6
2017-Oct-01 11:30N 40°01' E 017°18'510.6
2017-Oct-01 11:01N 40°06' E 017°16'510.5
2017-Oct-01 10:30N 40°11' E 017°15'510.3
2017-Oct-01 10:01N 40°16' E 017°12'510.2
2017-Oct-01 09:30N 40°21' E 017°09'4 8.8
2017-Oct-01 09:01N 40°25' E 017°09'4 8.2
2017-Oct-01 08:31N 40°28' E 017°13'1 1.4
2017-Oct-01 07:58N 40°29' E 017°13'0 0.0
2017-Oct-01 07:28N 40°29' E 017°13'0 0.0
2017-Oct-01 06:58N 40°29' E 017°13'0 0.0
2017-Oct-01 06:28N 40°29' E 017°13'0 0.0
2017-Oct-01 05:58N 40°29' E 017°13'0 0.0
2017-Oct-01 05:28N 40°29' E 017°13'0 0.0
2017-Oct-01 04:58N 40°29' E 017°13'0 0.0
2017-Oct-01 04:28N 40°29' E 017°13'0 0.0
2017-Oct-01 03:58N 40°29' E 017°13'0 0.0
2017-Oct-01 03:28N 40°29' E 017°13'0 0.0
2017-Oct-01 02:58N 40°29' E 017°13'  
Track history (hours):
 
Tides and Currents Weather Stations Pressure Air Temp Water Temp Dewpoint Dewpoint Depression Visibility Wind Speed Wind Dir Waves Ship Positions

Lara Venture

Last reported at 2017-Oct-10 07:36 UTC. Time now 2017-Oct-19 20:03 UTC.
Position N 39°34' W 016°52'.
Warning: this ship's position is 9 days out of date.

Length 235 m; draft 7.6 m.

Type: Cargo ship. MMSI: 477434300.

Date/timePositionNaut miles runAvg speedWind from/ knotsBaromVisibWave heightAir tempDewpointWater temp
2017-Oct-10 07:36N 39°34' W 016°52'3410.1
2017-Oct-10 04:14N 39°18' W 016°13'210.1
2017-Oct-10 04:00N 39°17' W 016°11'810.2
2017-Oct-10 03:12N 39°13' W 016°01'210.4
2017-Oct-10 03:00N 39°12' W 015°59'510.2
2017-Oct-10 02:30N 39°10' W 015°53'510.1
2017-Oct-10 02:00N 39°07' W 015°48'510.2
2017-Oct-10 01:30N 39°05' W 015°42'5 9.9
2017-Oct-10 01:00N 39°02' W 015°36'510.1
2017-Oct-10 00:30N 38°60' W 015°31'510.2
2017-Oct-10 00:00N 38°57' W 015°25'510.0
2017-Oct-09 23:30N 38°55' W 015°20'5 9.9
2017-Oct-09 23:00N 38°52' W 015°14'510.1
2017-Oct-09 22:30N 38°50' W 015°08'510.0
2017-Oct-09 22:00N 38°48' W 015°03'510.0
2017-Oct-09 21:30N 38°45' W 014°57'510.0
2017-Oct-09 21:00N 38°43' W 014°52'510.1
2017-Oct-09 20:30N 38°40' W 014°46'510.3
2017-Oct-09 20:00N 38°38' W 014°40'5 9.7
2017-Oct-09 19:30N 38°35' W 014°35'510.0
2017-Oct-09 19:00N 38°33' W 014°29'5 9.9
2017-Oct-09 18:30N 38°30' W 014°24'510.0
2017-Oct-09 18:00N 38°28' W 014°18'510.0
2017-Oct-09 17:30N 38°26' W 014°12'5 9.9
2017-Oct-09 17:00N 38°23' W 014°07'510.2
2017-Oct-09 16:30N 38°21' W 014°01'510.3
2017-Oct-09 16:00N 38°18' W 013°55'510.2
2017-Oct-09 15:30N 38°16' W 013°50'510.0
2017-Oct-09 15:00N 38°14' W 013°44'611.9
2017-Oct-09 14:30N 38°11' W 013°37'713.0
2017-Oct-09 14:00N 38°08' W 013°30'5 9.6
2017-Oct-09 13:30N 38°05' W 013°25'5 9.7
2017-Oct-09 13:00N 38°03' W 013°19'5 9.7
2017-Oct-09 12:30N 38°00' W 013°14'510.0
2017-Oct-09 12:00N 37°58' W 013°09'510.0
2017-Oct-09 11:30N 37°56' W 013°03'510.0
2017-Oct-09 11:00N 37°54' W 012°57'510.0
2017-Oct-09 10:30N 37°51' W 012°52'5 9.9
2017-Oct-09 10:00N 37°49' W 012°46'5 9.7
2017-Oct-09 09:30N 37°46' W 012°41'5 9.8
2017-Oct-09 09:00N 37°44' W 012°35'510.1
2017-Oct-09 08:30N 37°41' W 012°30'5 9.9
2017-Oct-09 08:00N 37°39' W 012°24'5 9.9
2017-Oct-09 07:30N 37°37' W 012°19'510.0
2017-Oct-09 07:00N 37°34' W 012°13'5 9.9
2017-Oct-09 06:30N 37°32' W 012°08'5 9.8
2017-Oct-09 06:00N 37°29' W 012°03'5 9.8
2017-Oct-09 05:30N 37°27' W 011°57'5 9.8
2017-Oct-09 05:00N 37°25' W 011°52'5 9.9
2017-Oct-09 04:30N 37°22' W 011°46'510.2
2017-Oct-09 04:00N 37°20' W 011°41'510.1
2017-Oct-09 03:30N 37°17' W 011°35'5 9.9
2017-Oct-09 03:00N 37°15' W 011°30'5 9.6
2017-Oct-09 02:30N 37°13' W 011°24'5 9.7
2017-Oct-09 02:00N 37°10' W 011°19'5 9.9
2017-Oct-09 01:30N 37°08' W 011°14'5 9.8
2017-Oct-09 01:00N 37°06' W 011°08'5 9.5
2017-Oct-09 00:30N 37°03' W 011°03'5 9.3
2017-Oct-09 00:00N 37°01' W 010°58'5 9.6
2017-Oct-08 23:30N 36°59' W 010°53'5 9.5
2017-Oct-08 23:00N 36°56' W 010°47'5 9.2
2017-Oct-08 22:30N 36°54' W 010°42'4 9.0
2017-Oct-08 22:00N 36°52' W 010°37'5 9.0
2017-Oct-08 21:30N 36°50' W 010°32'5 9.4
2017-Oct-08 21:00N 36°48' W 010°27'5 9.6
2017-Oct-08 20:28N 36°45' W 010°22'4 9.6
2017-Oct-08 20:00N 36°43' W 010°17'5 9.4
2017-Oct-08 19:30N 36°41' W 010°12'5 9.6
2017-Oct-08 19:00N 36°38' W 010°07'5 9.8
2017-Oct-08 18:31N 36°36' W 010°01'5 9.8
2017-Oct-08 18:00N 36°34' W 009°56'5 9.8
2017-Oct-08 17:30N 36°31' W 009°51'5 9.8
2017-Oct-08 17:00N 36°29' W 009°45'5 9.7
2017-Oct-08 16:30N 36°27' W 009°40'510.1
2017-Oct-08 16:00N 36°25' W 009°34'510.1
2017-Oct-08 15:28N 36°23' W 009°28'510.3
2017-Oct-08 15:00N 36°22' W 009°22'510.0
2017-Oct-08 14:29N 36°20' W 009°16'510.0
2017-Oct-08 14:00N 36°19' W 009°10'6 9.9
2017-Oct-08 13:27N 36°17' W 009°03'5 9.6
2017-Oct-08 12:56N 36°17' W 008°58'4 9.9
2017-Oct-08 12:30N 36°16' W 008°52'510.0
2017-Oct-08 12:00N 36°16' W 008°46'510.1
2017-Oct-08 11:30N 36°15' W 008°40'5 9.8
2017-Oct-08 11:00N 36°14' W 008°34'6 9.7
2017-Oct-08 10:26N 36°13' W 008°27'4 9.9
2017-Oct-08 10:00N 36°13' W 008°22'610.2
2017-Oct-08 09:26N 36°12' W 008°15'4 9.7
2017-Oct-08 08:59N 36°11' W 008°09'5 9.9
2017-Oct-08 08:30N 36°11' W 008°04'5 9.8
2017-Oct-08 08:00N 36°10' W 007°58'510.1
2017-Oct-08 07:30N 36°09' W 007°51'510.1
2017-Oct-08 07:00N 36°08' W 007°45'510.1
2017-Oct-08 06:30N 36°08' W 007°39'510.3
2017-Oct-08 06:00N 36°07' W 007°33'610.3
2017-Oct-08 05:24N 36°06' W 007°25'610.4
2017-Oct-08 04:48N 36°05' W 007°17'410.2
2017-Oct-08 04:25N 36°05' W 007°13'510.2
2017-Oct-08 03:57N 36°05' W 007°07'410.1
2017-Oct-08 03:30N 36°04' W 007°01'1310.7
2017-Oct-08 02:19N 36°01' W 006°46'310.6
2017-Oct-08 02:00N 36°01' W 006°42'510.4
2017-Oct-08 01:30N 36°00' W 006°35'1010.2
2017-Oct-08 00:30N 35°58' W 006°23'57 3.1
2017-Oct-07 06:22N 36°05' W 005°13'1 3.5
2017-Oct-07 06:00N 36°05' W 005°15'0 0.7
2017-Oct-07 05:30N 36°05' W 005°14'0 0.4
2017-Oct-07 05:00N 36°05' W 005°14'0 0.5
2017-Oct-07 04:30N 36°05' W 005°14'0 0.6
2017-Oct-07 04:00N 36°06' W 005°14'0 0.6
2017-Oct-07 03:30N 36°06' W 005°14'1 1.3
2017-Oct-07 03:00N 36°05' W 005°13'2 3.3
2017-Oct-07 02:30N 36°04' W 005°12'1 1.6
2017-Oct-07 02:00N 36°04' W 005°11'0 1.0
2017-Oct-07 01:30N 36°04' W 005°11'0 0.8
2017-Oct-07 01:00N 36°04' W 005°11'0 0.7
2017-Oct-07 00:30N 36°04' W 005°12'0 0.5
2017-Oct-07 00:00N 36°05' W 005°12'0 0.2
2017-Oct-06 23:30N 36°05' W 005°12'0 0.5
2017-Oct-06 23:00N 36°05' W 005°12'1 1.8
2017-Oct-06 22:30N 36°06' W 005°12'3 5.2
2017-Oct-06 22:00N 36°08' W 005°13'0 1.0
2017-Oct-06 21:30N 36°08' W 005°14'1 1.0
2017-Oct-06 21:00N 36°08' W 005°14'1 1.9
2017-Oct-06 20:30N 36°07' W 005°13'1 1.2
2017-Oct-06 20:00N 36°06' W 005°13'0 0.6
2017-Oct-06 19:30N 36°06' W 005°13'0 0.7
2017-Oct-06 19:00N 36°06' W 005°13'0 0.8
2017-Oct-06 18:30N 36°05' W 005°13'0 0.6
2017-Oct-06 18:00N 36°05' W 005°13'0 0.5
2017-Oct-06 17:30N 36°05' W 005°13'0 0.0
2017-Oct-06 17:00N 36°05' W 005°13'0 0.4
2017-Oct-06 16:30N 36°05' W 005°13'0 0.2
2017-Oct-06 16:00N 36°05' W 005°13'0 0.3
2017-Oct-06 15:30N 36°05' W 005°13'0 0.1
2017-Oct-06 15:00N 36°05' W 005°13'0 0.2
2017-Oct-06 14:30N 36°05' W 005°13'1 1.4
2017-Oct-06 14:00N 36°04' W 005°13'1 2.1
2017-Oct-06 13:30N 36°03' W 005°12'0 0.5
2017-Oct-06 12:56N 36°03' W 005°12'0 0.6
2017-Oct-06 12:30N 36°04' W 005°12'0 0.7
2017-Oct-06 12:00N 36°04' W 005°12'0 0.1
2017-Oct-06 11:30N 36°04' W 005°12'1 2.9
2017-Oct-06 11:00N 36°04' W 005°11'14510.6
2017-Oct-05 21:23N 36°09' W 002°11'410.2
2017-Oct-05 21:00N 36°10' W 002°07'5 9.9
2017-Oct-05 20:30N 36°11' W 002°01'5 9.9
2017-Oct-05 20:00N 36°12' W 001°55'7 9.9
2017-Oct-05 19:15N 36°13' W 001°46'5 9.7
2017-Oct-05 18:43N 36°14' W 001°39'2 9.6
2017-Oct-05 18:30N 36°15' W 001°37'5 9.7
2017-Oct-05 18:00N 36°16' W 001°31'5 9.6
2017-Oct-05 17:30N 36°17' W 001°25'20 9.8
2017-Oct-05 15:30N 36°21' W 001°01'510.1
2017-Oct-05 15:00N 36°22' W 000°55'  
2017-Oct-02 20:28N 36°46' E 013°21'510.1
2017-Oct-02 19:56N 36°44' E 013°28'410.1
2017-Oct-02 19:31N 36°43' E 013°33'510.0
2017-Oct-02 19:00N 36°42' E 013°39'5 9.9
2017-Oct-02 18:30N 36°40' E 013°45'5 9.8
2017-Oct-02 18:00N 36°39' E 013°51'5 9.8
2017-Oct-02 17:30N 36°38' E 013°57'5 9.7
2017-Oct-02 17:00N 36°36' E 014°02'5 9.7
2017-Oct-02 16:30N 36°35' E 014°08'5 9.8
2017-Oct-02 16:01N 36°34' E 014°14'5 9.6
2017-Oct-02 15:30N 36°32' E 014°20'5 9.6
2017-Oct-02 15:00N 36°31' E 014°26'5 9.6
2017-Oct-02 14:30N 36°30' E 014°31'5 9.8
2017-Oct-02 14:00N 36°28' E 014°37'510.3
2017-Oct-02 13:30N 36°29' E 014°44'510.4
2017-Oct-02 13:00N 36°29' E 014°50'1110.7
2017-Oct-02 11:57N 36°30' E 015°04'4910.1
2017-Oct-02 07:07N 37°01' E 015°50'212.5
2017-Oct-02 07:00N 37°03' E 015°51'1511.8
2017-Oct-02 05:46N 37°14' E 016°03'310.0
2017-Oct-02 05:29N 37°16' E 016°05'610.0
2017-Oct-02 04:54N 37°21' E 016°10'410.1
2017-Oct-02 04:28N 37°24' E 016°13'510.1
2017-Oct-02 04:01N 37°28' E 016°17'510.0
2017-Oct-02 03:31N 37°31' E 016°21'510.0
2017-Oct-02 03:00N 37°35' E 016°25'24 9.9
2017-Oct-02 00:35N 37°55' E 016°43'15 9.9
2017-Oct-01 23:06N 38°07' E 016°53'5810.5
2017-Oct-01 17:33N 38°58' E 017°29'1610.7
2017-Oct-01 16:04N 39°14' E 017°30'210.7
2017-Oct-01 15:55N 39°15' E 017°30'410.5
2017-Oct-01 15:30N 39°20' E 017°30'510.6
2017-Oct-01 15:00N 39°25' E 017°30'610.6
2017-Oct-01 14:26N 39°31' E 017°30'510.6
2017-Oct-01 14:00N 39°35' E 017°28'510.9
2017-Oct-01 13:30N 39°41' E 017°26'610.7
2017-Oct-01 12:55N 39°46' E 017°23'710.7
2017-Oct-01 12:17N 39°53' E 017°20'310.6
2017-Oct-01 12:00N 39°56' E 017°19'510.6
2017-Oct-01 11:30N 40°01' E 017°18'510.6
2017-Oct-01 11:01N 40°06' E 017°16'510.5
2017-Oct-01 10:30N 40°11' E 017°15'510.3
2017-Oct-01 10:01N 40°16' E 017°12'510.2
2017-Oct-01 09:30N 40°21' E 017°09'4 8.8
2017-Oct-01 09:01N 40°25' E 017°09'4 8.2
2017-Oct-01 08:31N 40°28' E 017°13'1 1.4
2017-Oct-01 07:58N 40°29' E 017°13'0 0.0
2017-Oct-01 07:28N 40°29' E 017°13'0 0.0
2017-Oct-01 06:58N 40°29' E 017°13'0 0.0
2017-Oct-01 06:28N 40°29' E 017°13'0 0.0
2017-Oct-01 05:58N 40°29' E 017°13'0 0.0
2017-Oct-01 05:28N 40°29' E 017°13'0 0.0
2017-Oct-01 04:58N 40°29' E 017°13'0 0.0
2017-Oct-01 04:28N 40°29' E 017°13'0 0.0
2017-Oct-01 03:58N 40°29' E 017°13'0 0.0
2017-Oct-01 03:28N 40°29' E 017°13'0 0.0
2017-Oct-01 02:58N 40°29' E 017°13'  

Dump ship's entire track history